Time;durP1;ratioP1;P1;durP2;ratioP2;P2;SDS_P1;SDS_P2;PMS_P1;PMS_P2;Temp;Humidity;BMP_temperature;BMP_pressure;BME280_temperature;BME280_humidity;BME280_pressure;Samples;Min_cycle;Max_cycle;Signal;HPM_P1;HPM_P2
2023/07/02 00:02:00;13979.00;0.05;24.84;0.00;0.00;0.62;;;;;22.90;1.00;;;;;;2271687;61;1620;-88
2023/07/02 00:09:28;348115.00;1.16;600.62;0.00;0.00;0.62;;;;;22.90;1.00;;;;;;2268949;61;1896;-88
2023/07/02 00:19:21;377688.00;1.26;651.45;0.00;0.00;0.62;;;;;23.00;1.00;;;;;;2273459;61;1744;-88
2023/07/02 00:21:48;52585.00;0.18;91.66;0.00;0.00;0.62;;;;;23.00;1.00;;;;;;2298885;40;3600;-88
2023/07/02 00:24:15;107952.00;0.36;187.30;0.00;0.00;0.62;;;;;23.30;1.00;;;;;;2276204;55;3738;-87
2023/07/02 00:29:13;458864.00;1.53;791.03;0.00;0.00;0.62;;;;;23.10;1.00;;;;;;2272909;56;3664;-88
2023/07/02 00:41:37;394360.00;1.31;680.11;0.00;0.00;0.62;;;;;23.50;1.00;;;;;;2273755;61;1426;-88
2023/07/02 00:51:37;322758.00;1.08;557.04;0.00;0.00;0.62;;;;;23.90;1.00;;;;;;2270550;61;1337;-90
2023/07/02 00:56:33;186716.00;0.62;323.05;0.00;0.00;0.62;;;;;24.10;1.00;;;;;;2270207;61;1401;-91
2023/07/02 00:59:00;116290.00;0.39;201.68;0.00;0.00;0.62;;;;;23.90;1.00;;;;;;2268091;61;1235;-86
2023/07/02 01:01:29;30861.00;0.10;54.07;0.00;0.00;0.62;;;;;23.50;1.00;;;;;;2272838;55;3797;-88
2023/07/02 01:03:59;98781.00;0.33;171.47;0.00;0.00;0.62;;;;;23.20;1.00;;;;;;2287015;56;3829;-87
2023/07/02 01:06:28;330096.00;1.10;569.65;50894.00;0.17;88.73;;;;;23.30;1.00;;;;;;2272363;61;1689;-87
2023/07/02 01:21:34;367192.00;1.22;633.41;0.00;0.00;0.62;;;;;23.50;1.00;;;;;;2266117;61;1393;-88
2023/07/02 01:24:02;12823.00;0.04;22.84;0.00;0.00;0.62;;;;;23.30;1.00;;;;;;2264208;61;1612;-88
2023/07/02 01:26:33;112235.00;0.37;194.69;0.00;0.00;0.62;;;;;23.20;1.00;;;;;;2264273;61;1612;-88
2023/07/02 01:29:00;28176.00;0.09;49.43;0.00;0.00;0.62;;;;;23.10;1.00;;;;;;2283102;40;3649;-88
2023/07/02 01:31:28;77984.00;0.26;135.55;0.00;0.00;0.62;;;;;23.00;1.00;;;;;;2268277;61;1146;-87
2023/07/02 01:33:55;137190.00;0.46;237.73;0.00;0.00;0.62;;;;;23.20;1.00;;;;;;2268030;61;1653;-89
2023/07/02 01:36:21;18575.00;0.06;32.80;0.00;0.00;0.62;;;;;23.40;1.00;;;;;;2268291;61;1104;-89
2023/07/02 01:41:23;564823.00;1.88;973.52;47662.00;0.16;83.14;;;;;23.40;1.00;;;;;;2269832;61;1389;-87
2023/07/02 01:46:20;352409.00;1.17;608.00;0.00;0.00;0.62;;;;;23.60;1.00;;;;;;2269974;61;1407;-88
2023/07/02 01:48:47;81421.00;0.27;141.49;0.00;0.00;0.62;;;;;23.50;1.00;;;;;;2270357;55;3866;-87
2023/07/02 01:51:14;142575.00;0.48;247.01;0.00;0.00;0.62;;;;;23.60;1.00;;;;;;2272088;61;2018;-89
2023/07/02 01:56:10;306950.00;1.02;529.87;0.00;0.00;0.62;;;;;23.60;1.00;;;;;;2269920;61;1341;-88
2023/07/02 02:01:09;482553.00;1.61;831.79;0.00;0.00;0.62;;;;;23.40;1.00;;;;;;2266217;61;1429;-88
2023/07/02 02:03:36;77669.00;0.26;135.01;0.00;0.00;0.62;;;;;23.40;1.00;;;;;;2264124;61;1609;-88
2023/07/02 02:06:03;148848.00;0.50;257.82;15339.00;0.05;27.20;;;;;23.50;1.00;;;;;;2264218;61;1756;-87
2023/07/02 02:08:30;1187.00;0.00;2.68;0.00;0.00;0.62;;;;;23.50;1.00;;;;;;2264161;61;1347;-89
2023/07/02 02:15:59;438644.00;1.46;756.25;0.00;0.00;0.62;;;;;23.40;1.00;;;;;;2269812;61;1349;-89
2023/07/02 02:18:27;59626.00;0.20;103.83;0.00;0.00;0.62;;;;;23.60;1.00;;;;;;2268069;61;1579;-87
2023/07/02 02:23:24;461498.00;1.54;795.56;0.00;0.00;0.62;;;;;23.70;1.00;;;;;;2270081;61;1337;-88
2023/07/02 02:33:15;630911.00;2.10;1087.62;75834.00;0.25;131.84;;;;;23.80;1.00;;;;;;2309629;40;3622;-87
2023/07/02 02:40:43;472136.00;1.57;813.86;22241.00;0.07;39.15;;;;;23.70;1.00;;;;;;2269993;61;1400;-88
2023/07/02 02:43:10;1259.00;0.00;2.80;0.00;0.00;0.62;;;;;23.70;1.00;;;;;;2284535;40;3628;-88
2023/07/02 02:48:06;109830.00;0.37;190.54;0.00;0.00;0.62;;;;;23.70;1.00;;;;;;2269921;61;1400;-88
2023/07/02 02:50:33;15227.00;0.05;27.00;0.00;0.00;0.62;;;;;23.70;1.00;;;;;;2268095;61;2004;-89
2023/07/02 02:55:29;367752.00;1.23;634.37;0.00;0.00;0.62;;;;;23.20;1.00;;;;;;2269982;61;1428;-87
2023/07/02 02:57:59;84662.00;0.28;147.09;0.00;0.00;0.62;;;;;23.40;1.00;;;;;;2267996;61;1698;-88
2023/07/02 03:08:00;140546.00;0.47;243.51;0.00;0.00;0.62;;;;;23.20;1.00;;;;;;2273208;56;1516;-88
2023/07/02 03:27:52;557419.00;1.86;960.75;82236.00;0.27;142.90;;;;;23.30;1.00;;;;;;2265408;61;1395;-87
2023/07/02 03:30:20;329509.00;1.10;568.64;105009.00;0.35;182.22;;;;;23.40;1.00;;;;;;2263802;61;2035;-86
2023/07/02 03:35:16;603684.00;2.01;1040.58;186563.00;0.62;322.79;;;;;23.40;1.00;;;;;;2289734;41;3522;-85
2023/07/02 04:02:47;322115.00;1.07;555.93;0.00;0.00;0.62;;;;;23.10;1.00;;;;;;2270373;61;1028;-89
2023/07/02 04:07:44;511623.00;1.71;881.84;0.00;0.00;0.62;;;;;23.00;1.00;;;;;;2270354;61;1349;-88
2023/07/02 04:10:11;306116.00;1.02;528.43;0.00;0.00;0.62;;;;;23.00;1.00;;;;;;2268609;61;2050;-90
2023/07/02 04:27:31;459442.00;1.53;792.02;0.00;0.00;0.62;;;;;23.00;1.00;;;;;;2270000;61;1288;-89
2023/07/02 04:35:02;304423.00;1.01;525.52;0.00;0.00;0.62;;;;;23.10;1.00;;;;;;2270148;61;1336;-90
2023/07/02 04:42:31;299123.00;1.00;516.41;0.00;0.00;0.62;;;;;22.30;1.00;;;;;;2270024;61;1325;-89
2023/07/02 04:45:02;0.00;0.00;0.62;0.00;0.00;0.62;;;;;22.30;1.00;;;;;;2268422;61;1141;-90
2023/07/02 04:50:02;362486.00;1.21;625.32;0.00;0.00;0.62;;;;;21.90;1.90;;;;;;2270212;61;1946;-89
2023/07/02 05:32:58;304955.00;1.02;526.44;0.00;0.00;0.62;;;;;22.70;1.00;;;;;;2061776;40;3659;31
2023/07/02 06:00:37;725862.00;2.42;1252.12;80469.00;0.27;139.85;;;;;23.70;1.00;;;;;;2306956;55;3680;-88
2023/07/02 06:08:08;658108.00;2.19;1134.67;26388.00;0.09;46.33;;;;;27.50;1.00;;;;;;2419549;40;4042;-89
2023/07/02 06:13:06;730573.00;2.44;1260.30;0.00;0.00;0.62;;;;;28.30;1.00;;;;;;2281560;55;3722;-89
2023/07/02 06:15:33;876568.00;2.92;1515.00;67207.00;0.22;116.93;;;;;29.40;1.00;;;;;;2314292;55;3819;-89
2023/07/02 06:18:03;1186280.00;3.95;2065.43;138979.00;0.46;240.81;;;;;30.50;1.00;;;;;;2279433;40;3751;-88
2023/07/02 06:25:29;876407.00;2.92;1514.72;27359.00;0.09;48.01;;;;;31.00;1.00;;;;;;2305510;55;3684;-90
2023/07/02 06:30:24;938063.00;3.13;1623.07;16591.00;0.06;29.37;;;;;32.10;1.00;;;;;;2269627;61;1961;-84
2023/07/02 06:35:22;549888.00;1.83;947.77;0.00;0.00;0.62;;;;;32.50;1.00;;;;;;2265825;61;1280;-87
2023/07/02 06:37:49;305218.00;1.02;526.89;0.00;0.00;0.62;;;;;32.40;1.00;;;;;;2264060;61;1749;-87
2023/07/02 06:40:16;512711.00;1.71;883.71;0.00;0.00;0.62;;;;;32.90;1.00;;;;;;2264149;61;1497;-88
2023/07/02 06:42:43;164797.00;0.55;285.30;0.00;0.00;0.62;;;;;33.30;1.00;;;;;;2264081;61;1586;-89
2023/07/02 06:47:44;349736.00;1.17;603.41;0.00;0.00;0.62;;;;;33.40;1.00;;;;;;2270452;61;1357;-88
2023/07/02 06:50:11;157690.00;0.53;273.06;0.00;0.00;0.62;;;;;33.90;1.00;;;;;;2268423;61;1911;-87
2023/07/02 07:02:39;352519.00;1.18;608.19;0.00;0.00;0.62;;;;;31.40;1.00;;;;;;2340292;40;3683;-88
2023/07/02 07:10:04;296871.00;0.99;512.54;47254.00;0.16;82.44;;;;;30.70;1.00;;;;;;2283027;55;3722;-89
2023/07/02 07:12:30;263271.00;0.88;454.77;42985.00;0.14;75.05;;;;;31.10;1.00;;;;;;2268663;61;1538;-89
2023/07/02 07:17:25;222389.00;0.74;384.45;0.00;0.00;0.62;;;;;32.90;1.00;;;;;;2323935;55;3741;-86
2023/07/02 07:22:29;134275.00;0.45;232.70;0.00;0.00;0.62;;;;;33.70;1.00;;;;;;2020569;55;3662;-86
2023/07/02 07:30:01;172676.00;0.58;298.88;0.00;0.00;0.62;;;;;32.80;1.00;;;;;;2269348;61;1978;-87
2023/07/02 07:32:28;17727.00;0.06;31.33;0.00;0.00;0.62;;;;;32.00;1.00;;;;;;2267662;61;1604;-86
2023/07/02 07:34:55;239700.00;0.80;414.24;67656.00;0.23;117.71;;;;;30.90;1.00;;;;;;2268041;61;1765;-86
2023/07/02 07:37:22;741.00;0.00;1.90;0.00;0.00;0.62;;;;;29.20;1.00;;;;;;2268029;61;1325;-86
2023/07/02 07:39:50;569975.00;1.90;982.40;116492.00;0.39;202.03;;;;;28.80;1.00;;;;;;2267941;61;1477;-86
2023/07/02 07:44:50;162776.00;0.54;281.82;0.00;0.00;0.62;;;;;28.10;1.00;;;;;;2269502;61;1348;-88
2023/07/02 07:47:17;84723.00;0.28;147.19;0.00;0.00;0.62;;;;;28.80;1.00;;;;;;2267859;61;1756;-89
2023/07/02 07:52:13;251564.00;0.84;434.64;0.00;0.00;0.62;;;;;30.60;1.00;;;;;;2269437;61;1969;-87
2023/07/02 07:54:40;0.00;0.00;0.62;0.00;0.00;0.62;;;;;31.00;1.00;;;;;;2267918;61;1505;-87
2023/07/02 07:57:09;130820.00;0.44;226.74;0.00;0.00;0.62;;;;;30.90;1.00;;;;;;2267791;61;2468;-89
2023/07/02 07:59:35;127435.00;0.42;220.91;0.00;0.00;0.62;;;;;30.80;1.00;;;;;;2267840;61;1763;-87
2023/07/02 08:02:02;131957.00;0.44;228.70;0.00;0.00;0.62;;;;;31.60;1.00;;;;;;2267810;61;1750;-89
2023/07/02 08:04:30;31987.00;0.11;56.02;0.00;0.00;0.62;;;;;31.60;1.00;;;;;;2267898;61;1797;-90
2023/07/02 08:06:57;163207.00;0.54;282.56;0.00;0.00;0.62;;;;;31.50;1.00;;;;;;2267952;61;1351;-89
2023/07/02 08:09:25;39141.00;0.13;68.40;0.00;0.00;0.62;;;;;31.50;1.00;;;;;;2268010;61;1178;-89
2023/07/02 08:11:52;86425.00;0.29;150.13;0.00;0.00;0.62;;;;;31.70;1.00;;;;;;2267850;61;1924;-85
2023/07/02 08:14:21;297925.00;0.99;514.35;36276.00;0.12;63.44;;;;;31.60;1.00;;;;;;2267872;61;1799;-89
2023/07/02 08:16:48;155548.00;0.52;269.37;0.00;0.00;0.62;;;;;31.70;1.00;;;;;;2267841;61;1653;-86
2023/07/02 08:19:15;37322.00;0.12;65.25;0.00;0.00;0.62;;;;;31.40;1.00;;;;;;2267993;61;1013;-89
2023/07/02 08:21:42;70574.00;0.24;122.75;0.00;0.00;0.62;;;;;31.20;1.00;;;;;;2267817;61;2371;-88
2023/07/02 08:24:09;142830.00;0.48;247.45;0.00;0.00;0.62;;;;;31.20;1.00;;;;;;2267890;61;1721;-86
2023/07/02 08:26:37;316183.00;1.05;545.74;0.00;0.00;0.62;;;;;30.70;1.00;;;;;;2267909;61;1657;-88
2023/07/02 08:29:04;342957.00;1.14;591.76;0.00;0.00;0.62;;;;;30.80;1.00;;;;;;2267786;61;1742;-87
2023/07/02 08:31:32;35247.00;0.12;61.66;0.00;0.00;0.62;;;;;31.20;1.00;;;;;;2267889;61;2455;-86
2023/07/02 08:33:59;160163.00;0.53;277.32;0.00;0.00;0.62;;;;;32.30;1.00;;;;;;2267841;61;1994;-87
2023/07/02 08:36:26;0.00;0.00;0.62;0.00;0.00;0.62;;;;;32.10;1.00;;;;;;2267765;61;1607;-88
2023/07/02 08:38:53;39967.00;0.13;69.83;0.00;0.00;0.62;;;;;31.50;1.00;;;;;;2267868;61;1345;-86
2023/07/02 08:41:23;85156.00;0.28;147.94;0.00;0.00;0.62;;;;;31.10;1.00;;;;;;2267756;61;1452;-86
2023/07/02 08:43:51;164006.00;0.55;283.94;33542.00;0.11;58.71;;;;;30.10;1.00;;;;;;2268163;61;1569;-88
2023/07/02 08:46:18;123591.00;0.41;214.28;20739.00;0.07;36.55;;;;;28.90;1.00;;;;;;2268487;61;1552;-87
2023/07/02 08:48:48;110884.00;0.37;192.36;0.00;0.00;0.62;;;;;28.50;1.00;;;;;;2268404;61;1605;-89
2023/07/02 08:51:15;106885.00;0.36;185.45;0.00;0.00;0.62;;;;;28.70;1.00;;;;;;2268258;61;1925;-87
2023/07/02 08:53:42;103457.00;0.34;179.54;0.00;0.00;0.62;;;;;28.90;1.00;;;;;;2268517;61;918;-88
2023/07/02 08:56:09;94615.00;0.32;164.28;0.00;0.00;0.62;;;;;29.10;1.00;;;;;;2268452;61;1629;-89
2023/07/02 08:58:36;187103.00;0.62;323.72;0.00;0.00;0.62;;;;;29.30;1.00;;;;;;2268404;61;1368;-88
2023/07/02 09:01:07;0.00;0.00;0.62;0.00;0.00;0.62;;;;;29.50;1.00;;;;;;2268394;61;1583;-86
2023/07/02 09:03:36;118590.00;0.40;205.65;17909.00;0.06;31.65;;;;;29.60;1.00;;;;;;2268434;61;1725;-90
2023/07/02 09:06:05;179808.00;0.60;311.16;0.00;0.00;0.62;;;;;29.40;1.00;;;;;;2268454;61;1609;-89
2023/07/02 09:08:34;156712.00;0.52;271.37;0.00;0.00;0.62;;;;;29.30;1.00;;;;;;2268389;61;1354;-89
2023/07/02 09:11:09;62449.00;0.21;108.71;0.00;0.00;0.62;;;;;29.70;1.00;;;;;;2268466;61;2011;-88
2023/07/02 09:13:49;151066.00;0.50;261.64;0.00;0.00;0.62;;;;;30.30;1.00;;;;;;2268358;61;1764;-87
2023/07/02 09:16:26;237078.00;0.79;409.72;0.00;0.00;0.62;;;;;29.80;1.00;;;;;;2268404;61;1736;-88
2023/07/02 09:18:58;389299.00;1.30;671.41;136819.00;0.46;237.09;;;;;29.30;1.00;;;;;;2268336;61;1796;-85
2023/07/02 09:21:28;157706.00;0.53;273.09;43141.00;0.14;75.32;;;;;28.80;1.00;;;;;;2268221;61;1556;-88
2023/07/02 09:23:56;97371.00;0.32;169.03;0.00;0.00;0.62;;;;;28.60;1.00;;;;;;2268364;61;1057;-89
2023/07/02 09:26:23;267051.00;0.89;461.27;0.00;0.00;0.62;;;;;29.10;1.00;;;;;;2268355;61;996;-89
2023/07/02 09:28:50;417969.00;1.39;720.70;0.00;0.00;0.62;;;;;29.00;1.00;;;;;;2268218;61;1409;-87
2023/07/02 09:31:17;378005.00;1.26;652.00;0.00;0.00;0.62;;;;;29.00;1.00;;;;;;2268345;61;1996;-89
2023/07/02 09:33:44;391802.00;1.31;675.71;5961.00;0.02;10.95;;;;;28.90;1.00;;;;;;2268387;61;1708;-90
2023/07/02 09:36:13;362836.00;1.21;625.92;60193.00;0.20;104.81;;;;;29.20;1.00;;;;;;2268165;61;1575;-89
2023/07/02 09:38:41;799269.00;2.66;1379.85;73597.00;0.25;127.98;;;;;29.60;1.00;;;;;;2268346;61;1729;-87
2023/07/02 09:41:09;742173.00;2.47;1280.45;100905.00;0.34;175.13;;;;;29.00;1.00;;;;;;2268379;61;1121;-87
2023/07/02 09:43:37;779859.00;2.60;1346.02;80062.00;0.27;139.14;;;;;28.80;1.00;;;;;;2268489;61;1836;-88
2023/07/02 09:46:04;658093.00;2.19;1134.64;90866.00;0.30;157.80;;;;;28.20;1.00;;;;;;2268359;61;932;-87
2023/07/02 09:48:36;262081.00;0.87;452.73;73473.00;0.24;127.76;;;;;28.20;1.00;;;;;;2268426;61;1470;-87
2023/07/02 09:51:05;534570.00;1.78;921.37;83093.00;0.28;144.38;;;;;28.50;1.00;;;;;;2268122;61;2008;-87
2023/07/02 09:53:32;443087.00;1.48;763.89;0.00;0.00;0.62;;;;;28.60;1.00;;;;;;2268412;61;1187;-87
2023/07/02 09:56:01;467625.00;1.56;806.10;61341.00;0.20;106.79;;;;;28.50;1.00;;;;;;2268379;61;1077;-88
2023/07/02 09:58:31;445785.00;1.49;768.53;91401.00;0.30;158.73;;;;;28.70;1.00;;;;;;2268239;61;1723;-89
2023/07/02 10:00:58;427077.00;1.42;736.36;32343.00;0.11;56.64;;;;;29.40;1.00;;;;;;2268340;61;1598;-90
2023/07/02 10:03:32;655188.00;2.18;1129.61;28272.00;0.09;49.59;;;;;30.00;1.00;;;;;;2268266;61;1556;-88
2023/07/02 10:06:06;457681.00;1.53;789.00;0.00;0.00;0.62;;;;;29.30;1.00;;;;;;2268310;61;1588;-87
2023/07/02 10:08:34;392994.00;1.31;677.76;18877.00;0.06;33.33;;;;;29.20;1.00;;;;;;2268249;61;1589;-87
2023/07/02 10:11:14;864706.00;2.88;1494.21;36874.00;0.12;64.48;;;;;28.90;1.00;;;;;;2268226;61;2006;-86
2023/07/02 10:13:42;66231.00;0.22;115.25;0.00;0.00;0.62;;;;;28.80;1.00;;;;;;2268213;61;1123;-87
2023/07/02 10:16:09;332635.00;1.11;574.02;0.00;0.00;0.62;;;;;28.30;1.00;;;;;;2268154;61;1034;-89
2023/07/02 10:18:36;116136.00;0.39;201.42;0.00;0.00;0.62;;;;;28.40;1.00;;;;;;2268012;61;1655;-88
2023/07/02 10:21:15;433385.00;1.44;747.21;88007.00;0.29;152.87;;;;;28.90;1.00;;;;;;2268192;61;1045;-87
2023/07/02 10:23:42;114610.00;0.38;198.78;0.00;0.00;0.62;;;;;29.30;1.00;;;;;;2268255;61;1080;-87
2023/07/02 10:28:39;525903.00;1.75;906.43;54750.00;0.18;95.40;;;;;29.40;1.00;;;;;;2269627;61;1416;-90
2023/07/02 10:33:34;752805.00;2.51;1298.94;0.00;0.00;0.62;;;;;29.70;1.00;;;;;;2269715;61;1428;-88
2023/07/02 10:36:02;460079.00;1.53;793.12;18021.00;0.06;31.84;;;;;30.00;1.00;;;;;;2345691;41;3626;-89
2023/07/02 10:41:00;749161.00;2.50;1292.60;1110.00;0.00;2.54;;;;;28.80;1.00;;;;;;2270253;61;1389;-88
2023/07/02 10:43:28;679328.00;2.26;1171.41;47320.00;0.16;82.55;;;;;29.00;1.00;;;;;;2268173;61;1798;-89
2023/07/02 10:45:59;894242.00;2.98;1546.01;100765.00;0.34;174.89;;;;;29.30;1.00;;;;;;2268093;61;1205;-89
2023/07/02 10:48:27;1632760.00;5.44;2895.51;254056.00;0.85;438.93;;;;;29.10;1.00;;;;;;2321714;41;3573;-89
2023/07/02 10:50:54;971084.00;3.24;1681.32;91582.00;0.31;159.04;;;;;28.70;1.00;;;;;;2272146;61;2010;-88
2023/07/02 10:53:23;975612.00;3.25;1689.32;155608.00;0.52;269.47;;;;;29.00;1.00;;;;;;2279368;40;3651;-88
2023/07/02 10:55:57;376542.00;1.26;649.48;64816.00;0.22;112.80;;;;;28.90;1.00;;;;;;2271920;61;1784;-88
2023/07/02 10:58:25;535298.00;1.78;922.62;120749.00;0.40;209.37;;;;;28.70;1.00;;;;;;2271812;61;1365;-88
2023/07/02 11:03:24;640810.00;2.14;1104.74;93559.00;0.31;162.45;;;;;27.80;1.00;;;;;;2280131;56;3705;-88
2023/07/02 11:05:52;438127.00;1.46;755.36;69222.00;0.23;120.42;;;;;28.20;1.00;;;;;;2271905;61;1939;-89
2023/07/02 11:08:21;395587.00;1.32;682.22;68445.00;0.23;119.07;;;;;27.40;1.00;;;;;;2271866;61;1717;-88
2023/07/02 11:10:48;415265.00;1.38;716.05;66732.00;0.22;116.11;;;;;27.20;1.00;;;;;;2271979;61;1517;-88
2023/07/02 11:13:16;337431.00;1.12;582.26;93485.00;0.31;162.32;;;;;27.80;1.00;;;;;;2272055;61;2006;-89
2023/07/02 11:15:45;720307.00;2.40;1242.47;128268.00;0.43;222.34;;;;;28.20;1.00;;;;;;2271871;61;1627;-86
2023/07/02 11:18:14;422593.00;1.41;728.65;75992.00;0.25;132.11;;;;;28.00;1.00;;;;;;2271807;61;1447;-86
2023/07/02 11:20:43;402659.00;1.34;694.38;75399.00;0.25;131.09;;;;;28.40;1.00;;;;;;2271917;61;1538;-88
2023/07/02 11:23:31;546599.00;1.82;942.10;102709.00;0.34;178.25;;;;;28.70;1.00;;;;;;2271950;61;928;-89
2023/07/02 11:25:59;742144.00;2.47;1280.40;56167.00;0.19;97.85;;;;;28.80;1.00;;;;;;2271921;61;1725;-88
2023/07/02 11:28:27;1082240.00;3.61;1878.69;41162.00;0.14;71.90;;;;;29.20;1.00;;;;;;2271843;61;1730;-88
2023/07/02 11:30:54;1257214.00;4.19;2194.01;122195.00;0.41;211.87;;;;;29.10;1.00;;;;;;2271832;61;1619;-89
2023/07/02 11:33:32;440372.00;1.47;759.22;70267.00;0.23;122.22;;;;;28.90;1.00;;;;;;2271884;61;2006;-89
2023/07/02 11:36:01;641109.00;2.14;1105.26;73242.00;0.24;127.36;;;;;29.00;1.00;;;;;;2271659;61;1737;-88
2023/07/02 11:38:28;778379.00;2.59;1343.44;27215.00;0.09;47.76;;;;;29.00;1.00;;;;;;2271791;61;1620;-89
2023/07/02 11:40:55;580543.00;1.94;1000.64;6576.00;0.02;12.02;;;;;29.20;1.00;;;;;;2271929;61;1262;-90
2023/07/02 11:43:22;542654.00;1.81;935.30;79656.00;0.27;138.44;;;;;29.00;1.00;;;;;;2271829;61;1052;-89
2023/07/02 11:48:17;1355463.00;4.52;2373.97;108096.00;0.36;187.54;;;;;28.70;1.00;;;;;;2269308;61;1436;-88
2023/07/02 11:50:44;823300.00;2.74;1421.79;130501.00;0.44;226.19;;;;;28.80;1.00;;;;;;2267812;61;1738;-88
2023/07/02 11:53:14;1015186.00;3.38;1759.39;110875.00;0.37;192.34;;;;;28.90;1.00;;;;;;2267599;61;2013;-89
2023/07/02 11:55:40;1104393.00;3.68;1918.28;95855.00;0.32;166.42;;;;;28.70;1.00;;;;;;2267716;61;1067;-88
2023/07/02 11:58:09;701143.00;2.34;1209.22;109504.00;0.37;189.97;;;;;28.80;1.00;;;;;;2267859;61;1699;-87
2023/07/02 12:00:36;919075.00;3.06;1589.65;92066.00;0.31;159.87;;;;;29.00;1.00;;;;;;2267822;61;1088;-87
2023/07/02 12:03:03;752632.00;2.51;1298.63;68695.00;0.23;119.51;;;;;28.60;1.00;;;;;;2267798;61;1761;-88
2023/07/02 12:05:30;985344.00;3.28;1706.53;96447.00;0.32;167.44;;;;;28.60;1.00;;;;;;2267801;61;907;-87
2023/07/02 12:07:56;847989.00;2.83;1464.95;79636.00;0.27;138.41;;;;;28.50;1.00;;;;;;2267718;61;1612;-87
2023/07/02 12:10:25;1222330.00;4.07;2130.65;114050.00;0.38;197.82;;;;;28.60;1.00;;;;;;2267908;61;1050;-89
2023/07/02 12:12:52;1124526.00;3.75;1954.34;141307.00;0.47;244.82;;;;;28.50;1.00;;;;;;2267608;61;1997;-88
2023/07/02 12:15:19;700956.00;2.34;1208.90;85049.00;0.28;147.76;;;;;28.60;1.00;;;;;;2267787;61;1631;-88
2023/07/02 12:17:46;997694.00;3.33;1728.39;100526.00;0.34;174.48;;;;;28.90;1.00;;;;;;2267799;61;1396;-87
2023/07/02 12:20:14;1265913.00;4.22;2209.86;209258.00;0.70;361.86;;;;;28.90;1.00;;;;;;2268603;61;1656;-88
2023/07/02 12:22:41;1358739.00;4.53;2380.02;176882.00;0.59;306.12;;;;;28.70;1.00;;;;;;2268163;61;1102;-89
2023/07/02 12:25:09;1078933.00;3.60;1872.79;184798.00;0.62;319.75;;;;;29.00;1.00;;;;;;2276119;55;3753;-88
2023/07/02 12:27:38;1145328.00;3.82;1991.68;189847.00;0.63;328.45;;;;;29.30;1.00;;;;;;2272372;61;1317;-88
2023/07/02 12:30:07;714195.00;2.38;1231.86;85455.00;0.28;148.46;;;;;29.30;1.00;;;;;;2272540;61;1014;-88
2023/07/02 12:32:33;1172860.00;3.91;2041.23;103144.00;0.34;179.00;;;;;29.40;1.00;;;;;;2272426;61;2006;-89
2023/07/02 12:35:01;978840.00;3.26;1695.03;171256.00;0.57;296.43;;;;;29.20;1.00;;;;;;2272573;61;2408;-87
2023/07/02 12:37:28;582497.00;1.94;1004.01;73729.00;0.25;128.20;;;;;29.40;1.00;;;;;;2272511;61;1403;-87
2023/07/02 12:42:29;980606.00;3.27;1698.15;74251.00;0.25;129.11;;;;;29.70;1.00;;;;;;2270410;61;1413;-89
2023/07/02 12:44:57;552528.00;1.84;952.32;109655.00;0.37;190.23;;;;;29.90;1.00;;;;;;2268413;61;1158;-89
2023/07/02 12:49:57;974357.00;3.25;1687.11;0.00;0.00;0.62;;;;;29.80;1.00;;;;;;2273700;61;1348;-89
2023/07/02 12:54:54;775922.00;2.59;1339.16;0.00;0.00;0.62;;;;;29.90;1.00;;;;;;2269733;61;1380;-90
2023/07/02 12:57:21;416512.00;1.39;718.19;0.00;0.00;0.62;;;;;30.00;1.00;;;;;;2268427;61;1740;-87
2023/07/02 12:59:48;298865.00;1.00;515.97;0.00;0.00;0.62;;;;;30.00;1.00;;;;;;2268447;61;1636;-88
2023/07/02 13:02:17;603982.00;2.01;1041.10;0.00;0.00;0.62;;;;;30.10;1.00;;;;;;2268362;61;1590;-88
2023/07/02 13:04:47;595078.00;1.98;1025.72;28562.00;0.10;50.09;;;;;30.20;1.00;;;;;;2268322;61;1043;-87
2023/07/02 13:07:14;402468.00;1.34;694.05;0.00;0.00;0.62;;;;;30.10;1.00;;;;;;2268286;61;1728;-88
2023/07/02 13:12:11;677913.00;2.26;1168.96;18282.00;0.06;32.29;;;;;29.70;1.00;;;;;;2269954;61;1964;-87
2023/07/02 13:17:11;463607.00;1.55;799.19;0.00;0.00;0.62;;;;;29.40;1.00;;;;;;2270044;61;1431;-89
2023/07/02 13:19:44;356060.00;1.19;614.28;0.00;0.00;0.62;;;;;29.30;1.00;;;;;;2268463;61;1554;-85
2023/07/02 13:22:11;269521.00;0.90;465.52;0.00;0.00;0.62;;;;;28.90;1.00;;;;;;2268512;61;1733;-87
2023/07/02 13:24:40;266151.00;0.89;459.73;0.00;0.00;0.62;;;;;28.60;1.00;;;;;;2268590;61;1708;-88
2023/07/02 13:32:06;445569.00;1.49;768.16;0.00;0.00;0.62;;;;;27.90;1.00;;;;;;2270301;61;1896;-86
2023/07/02 13:34:33;242492.00;0.81;419.04;0.00;0.00;0.62;;;;;28.60;1.00;;;;;;2268266;61;1560;-88
2023/07/02 13:37:02;228857.00;0.76;395.58;0.00;0.00;0.62;;;;;29.00;1.00;;;;;;2276492;40;3612;-87
2023/07/02 13:39:30;97353.00;0.32;169.00;0.00;0.00;0.62;;;;;29.30;1.00;;;;;;2272235;61;1227;-90
2023/07/02 13:41:57;178315.00;0.59;308.59;0.00;0.00;0.62;;;;;29.60;1.00;;;;;;2272445;61;1118;-87
2023/07/02 13:44:24;161838.00;0.54;280.21;0.00;0.00;0.62;;;;;29.60;1.00;;;;;;2272187;61;1608;-90
2023/07/02 13:49:21;476473.00;1.59;821.33;0.00;0.00;0.62;;;;;30.10;1.00;;;;;;2270145;61;1352;-89
2023/07/02 13:51:49;194963.00;0.65;337.25;0.00;0.00;0.62;;;;;30.10;1.00;;;;;;2268136;61;1996;-88
2023/07/02 13:54:18;365563.00;1.22;630.61;24403.00;0.08;42.89;;;;;29.90;1.00;;;;;;2268240;61;1019;-88
2023/07/02 13:56:45;142761.00;0.48;247.33;0.00;0.00;0.62;;;;;29.70;1.00;;;;;;2268343;61;1421;-88
2023/07/02 13:59:15;336355.00;1.12;580.41;0.00;0.00;0.62;;;;;29.80;1.00;;;;;;2268227;61;1111;-87
2023/07/02 14:01:42;181116.00;0.60;313.41;0.00;0.00;0.62;;;;;29.80;1.00;;;;;;2268197;61;1676;-87
2023/07/02 14:04:09;433395.00;1.44;747.22;0.00;0.00;0.62;;;;;29.90;1.00;;;;;;2268288;61;1076;-88
2023/07/02 14:06:37;146141.00;0.49;253.16;0.00;0.00;0.62;;;;;29.70;1.00;;;;;;2268134;61;1051;-88
2023/07/02 14:09:05;217549.00;0.73;376.13;0.00;0.00;0.62;;;;;29.40;1.00;;;;;;2268064;61;1442;-84
2023/07/02 14:11:34;36736.00;0.12;64.24;0.00;0.00;0.62;;;;;29.40;1.00;;;;;;2268176;61;1168;-86
2023/07/02 14:14:01;468990.00;1.56;808.45;32846.00;0.11;57.51;;;;;29.40;1.00;;;;;;2283926;40;3539;-88
2023/07/02 14:16:29;104482.00;0.35;181.31;0.00;0.00;0.62;;;;;29.60;1.00;;;;;;2272038;61;1167;-89
2023/07/02 14:18:56;220836.00;0.74;381.78;0.00;0.00;0.62;;;;;29.90;1.00;;;;;;2272059;61;1727;-86
2023/07/02 14:21:23;173917.00;0.58;301.01;0.00;0.00;0.62;;;;;30.10;1.00;;;;;;2272157;61;1122;-90
2023/07/02 14:23:50;413014.00;1.38;712.18;26975.00;0.09;47.35;;;;;30.00;1.00;;;;;;2272196;61;1023;-88
2023/07/02 14:26:17;88916.00;0.30;154.44;0.00;0.00;0.62;;;;;30.00;1.00;;;;;;2272108;61;1033;-88
2023/07/02 14:28:45;211250.00;0.70;365.29;0.00;0.00;0.62;;;;;30.10;1.00;;;;;;2272150;61;1337;-88
2023/07/02 14:31:12;231884.00;0.77;400.79;0.00;0.00;0.62;;;;;29.80;1.00;;;;;;2272095;61;1707;-89
2023/07/02 14:33:41;440912.00;1.47;760.15;0.00;0.00;0.62;;;;;29.90;1.00;;;;;;2272035;61;1923;-88
2023/07/02 14:36:08;470873.00;1.57;811.69;0.00;0.00;0.62;;;;;29.80;1.00;;;;;;2272275;61;1189;-86
2023/07/02 14:38:35;483757.00;1.61;833.86;105367.00;0.35;182.84;;;;;29.70;1.00;;;;;;2272148;61;2383;-87
2023/07/02 14:41:03;159062.00;0.53;275.42;0.00;0.00;0.62;;;;;29.50;1.00;;;;;;2272209;61;1047;-86
2023/07/02 14:43:31;135130.00;0.45;234.17;0.00;0.00;0.62;;;;;29.20;1.00;;;;;;2272217;61;1165;-86
2023/07/02 14:46:01;162646.00;0.54;281.60;0.00;0.00;0.62;;;;;29.10;1.00;;;;;;2272134;61;1156;-88
2023/07/02 14:48:28;495696.00;1.65;854.41;0.00;0.00;0.62;;;;;29.30;1.00;;;;;;2271967;61;1378;-89
2023/07/02 14:50:58;271844.00;0.91;469.51;0.00;0.00;0.62;;;;;29.30;1.00;;;;;;2271914;61;1025;-89
2023/07/02 14:53:26;201711.00;0.67;348.87;0.00;0.00;0.62;;;;;29.20;1.00;;;;;;2271948;61;1982;-88
2023/07/02 14:55:56;118530272.00;395.10;67457096.00;0.00;0.00;0.62;;;;;29.10;1.00;;;;;;2272101;61;1094;-86
2023/07/02 14:58:24;326515.00;1.09;563.50;0.00;0.00;0.62;;;;;29.30;1.00;;;;;;2271840;61;1757;-88
2023/07/02 15:00:53;83162.00;0.28;144.50;0.00;0.00;0.62;;;;;29.50;1.00;;;;;;2272014;61;1020;-88
2023/07/02 15:03:23;257521.00;0.86;444.89;35607.00;0.12;62.29;;;;;29.80;1.00;;;;;;2272216;61;995;-88